createdAt,value
2022-12-31T00:08:06.312Z,28.40
2022-12-31T00:18:12.565Z,28.10
2022-12-31T00:28:18.636Z,25.40
2022-12-31T00:38:24.595Z,18.80
2022-12-31T00:48:30.655Z,20.80
2022-12-31T00:58:37.098Z,17.90
2022-12-31T01:08:43.174Z,18.00
2022-12-31T01:18:49.322Z,19.60
2022-12-31T01:28:55.299Z,15.80
2022-12-31T01:39:02.830Z,18.60
2022-12-31T01:49:17.814Z,18.30
2022-12-31T01:59:26.718Z,19.40
2022-12-31T02:09:34.031Z,17.20
2022-12-31T02:30:14.356Z,17.00
2022-12-31T02:40:23.519Z,17.70
2022-12-31T02:50:55.697Z,20.80
2022-12-31T03:01:20.128Z,19.70
2022-12-31T03:11:42.763Z,13.60
2022-12-31T03:22:06.620Z,16.70
2022-12-31T03:32:12.524Z,15.80
2022-12-31T03:42:18.575Z,14.00
2022-12-31T03:52:24.723Z,14.20
2022-12-31T04:02:30.951Z,13.20
2022-12-31T04:12:37.379Z,9.30
2022-12-31T04:22:44.233Z,10.80
2022-12-31T04:32:50.293Z,10.60
2022-12-31T04:42:56.063Z,8.70
2022-12-31T04:53:01.973Z,7.70
2022-12-31T05:03:08.358Z,8.70
2022-12-31T05:13:15.176Z,8.90
2022-12-31T05:23:21.504Z,8.30
2022-12-31T05:33:27.351Z,8.30
2022-12-31T05:43:34.122Z,9.10
2022-12-31T05:53:40.101Z,9.80
2022-12-31T06:03:46.725Z,6.60
2022-12-31T06:13:52.788Z,8.20
2022-12-31T06:23:58.925Z,7.80
2022-12-31T06:34:05.262Z,8.50
2022-12-31T06:44:11.270Z,8.60
2022-12-31T06:54:17.388Z,9.30
2022-12-31T07:04:45.725Z,7.30
2022-12-31T07:14:59.330Z,9.60
2022-12-31T07:25:07.133Z,7.40
2022-12-31T07:35:23.188Z,7.40
2022-12-31T07:45:36.208Z,6.70
2022-12-31T07:55:42.135Z,7.00
2022-12-31T08:05:56.502Z,6.90
2022-12-31T08:16:03.478Z,6.20
2022-12-31T08:26:20.483Z,5.40
2022-12-31T08:36:33.981Z,7.50
2022-12-31T08:46:48.237Z,5.60
2022-12-31T08:56:59.809Z,4.70
2022-12-31T09:07:06.791Z,5.10
2022-12-31T09:17:26.615Z,3.90
2022-12-31T09:27:39.111Z,3.10
2022-12-31T09:37:49.701Z,4.20
2022-12-31T09:48:29.399Z,5.10
2022-12-31T09:58:45.176Z,3.20
2022-12-31T10:09:08.104Z,3.30
2022-12-31T10:19:54.242Z,3.40
2022-12-31T10:30:13.150Z,3.50
2022-12-31T10:40:35.409Z,2.90
2022-12-31T10:51:12.335Z,3.60
2022-12-31T11:01:29.387Z,3.60
2022-12-31T11:11:42.712Z,5.80
2022-12-31T11:22:06.750Z,8.00
2022-12-31T11:32:27.363Z,5.20
2022-12-31T11:42:47.385Z,6.20
2022-12-31T11:53:04.606Z,5.20
2022-12-31T12:03:12.516Z,4.80
2022-12-31T12:23:27.895Z,5.50
2022-12-31T12:33:44.899Z,7.00
2022-12-31T12:43:50.855Z,6.70
2022-12-31T12:54:04.530Z,4.60
2022-12-31T13:04:40.659Z,3.60
2022-12-31T13:14:55.876Z,4.50
2022-12-31T13:25:09.169Z,3.40
2022-12-31T13:35:28.275Z,2.50
2022-12-31T13:45:38.805Z,2.80
2022-12-31T13:55:56.641Z,3.10
2022-12-31T14:26:27.682Z,5.00
2022-12-31T14:36:44.373Z,5.30
2022-12-31T14:47:05.967Z,8.10
2022-12-31T14:57:26.171Z,8.30
2022-12-31T15:07:42.133Z,5.30
2022-12-31T15:17:58.626Z,7.60
2022-12-31T15:28:07.463Z,6.00
2022-12-31T15:38:38.047Z,5.60
2022-12-31T15:48:52.068Z,6.70
2022-12-31T15:59:01.010Z,9.70
2022-12-31T16:09:10.799Z,6.50
2022-12-31T16:19:29.805Z,8.80
2022-12-31T16:29:38.668Z,10.20
2022-12-31T16:40:17.982Z,10.20
2022-12-31T16:50:25.777Z,7.50
2022-12-31T17:00:33.356Z,24.30
2022-12-31T17:10:39.282Z,10.70
2022-12-31T17:20:45.396Z,6.30
2022-12-31T17:30:51.770Z,11.00
2022-12-31T17:41:05.512Z,9.10
2022-12-31T17:51:11.489Z,18.40
2022-12-31T18:01:19.762Z,15.70
2022-12-31T18:11:26.656Z,7.00
2022-12-31T18:21:34.503Z,9.70
2022-12-31T18:41:49.724Z,6.10
2022-12-31T18:51:57.119Z,5.90
2022-12-31T19:02:03.069Z,7.20
2022-12-31T19:12:11.339Z,8.10
2022-12-31T19:22:18.237Z,6.60
2022-12-31T19:32:24.140Z,7.20
2022-12-31T19:42:29.908Z,8.30
2022-12-31T19:52:35.735Z,6.10
2022-12-31T20:02:41.803Z,4.80
2022-12-31T20:12:47.823Z,6.20
2022-12-31T20:22:53.694Z,6.80
2022-12-31T20:32:59.626Z,7.40
2022-12-31T20:43:05.668Z,6.20
2022-12-31T20:53:11.833Z,7.10
2022-12-31T21:03:53.855Z,5.10
2022-12-31T21:13:44.283Z,6.60
2022-12-31T21:23:50.428Z,7.20
2022-12-31T21:33:56.233Z,9.50
2022-12-31T21:44:02.207Z,10.90
2022-12-31T21:54:28.675Z,4.70
2022-12-31T22:15:15.476Z,5.00
2022-12-31T22:25:22.526Z,6.40
2022-12-31T22:35:28.449Z,4.80
2022-12-31T22:45:34.416Z,4.90
2022-12-31T22:55:40.284Z,3.30
2022-12-31T23:05:48.606Z,19.30
2022-12-31T23:16:12.391Z,10.60
2022-12-31T23:26:18.555Z,7.30
2022-12-31T23:36:24.808Z,10.00
2022-12-31T23:46:30.804Z,24.10
2022-12-31T23:56:37.096Z,14.10
